Time;durP1;ratioP1;P1;durP2;ratioP2;P2;SDS_P1;SDS_P2;PMS_P1;PMS_P2;Temp;Humidity;BMP_temperature;BMP_pressure;BME280_temperature;BME280_humidity;BME280_pressure;Samples;Min_cycle;Max_cycle;Signal;HPM_P1;HPM_P2
2021/11/09 00:02:17;;;;;;;;;97.00;86.00;;;;;;;;5113646;27;51034;-64
2021/11/09 00:04:47;;;;;;;;;99.33;85.00;;;;;;;;5113813;27;49851;-64
2021/11/09 00:12:27;;;;;;;;;92.33;81.00;;;;;;;;5113694;27;50515;-65
2021/11/09 00:14:52;;;;;;;;;90.67;70.33;;;;;;;;5112374;27;49858;-64
2021/11/09 00:17:18;;;;;;;;;94.67;81.00;;;;;;;;5112553;27;49630;-64
2021/11/09 00:19:43;;;;;;;;;95.67;76.00;;;;;;;;5113774;27;49802;-64
2021/11/09 00:22:08;;;;;;;;;93.00;79.33;;;;;;;;5112912;27;58321;-64
2021/11/09 00:24:33;;;;;;;;;92.67;78.67;;;;;;;;5113400;27;49802;-64
2021/11/09 00:26:58;;;;;;;;;90.67;74.33;;;;;;;;5113159;27;58916;-66
2021/11/09 00:29:24;;;;;;;;;91.67;75.33;;;;;;;;5112969;27;54088;-66
2021/11/09 00:31:49;;;;;;;;;94.00;74.67;;;;;;;;5111335;27;64901;-65
2021/11/09 00:34:14;;;;;;;;;93.00;74.67;;;;;;;;5113430;27;49632;-65
2021/11/09 00:36:39;;;;;;;;;93.00;72.00;;;;;;;;5113008;27;53722;-65
2021/11/09 00:39:07;;;;;;;;;89.33;72.67;;;;;;;;5113095;27;51649;-65
2021/11/09 00:41:32;;;;;;;;;90.33;76.00;;;;;;;;5112823;27;49768;-65
2021/11/09 00:43:57;;;;;;;;;90.67;73.67;;;;;;;;5113015;27;49937;-64
2021/11/09 00:46:22;;;;;;;;;84.67;68.00;;;;;;;;5112796;27;57983;-64
2021/11/09 00:48:47;;;;;;;;;87.67;73.00;;;;;;;;5111852;27;50083;-65
2021/11/09 00:51:13;;;;;;;;;85.33;66.67;;;;;;;;5112807;27;49685;-64
2021/11/09 00:53:39;;;;;;;;;83.67;65.00;;;;;;;;5113112;27;49683;-64
2021/11/09 00:56:04;;;;;;;;;87.00;67.33;;;;;;;;5113382;27;49868;-64
2021/11/09 00:58:30;;;;;;;;;79.67;64.00;;;;;;;;5113203;27;49602;-64
2021/11/09 01:00:55;;;;;;;;;78.67;61.00;;;;;;;;5112146;27;68552;-64
2021/11/09 01:03:20;;;;;;;;;83.67;66.67;;;;;;;;5112549;27;53173;-64
2021/11/09 01:05:45;;;;;;;;;81.67;64.67;;;;;;;;5112855;27;50037;-63
2021/11/09 01:08:12;;;;;;;;;81.33;63.00;;;;;;;;5113145;27;49940;-64
2021/11/09 01:10:39;;;;;;;;;81.33;63.00;;;;;;;;5111549;27;50438;-64
2021/11/09 01:13:04;;;;;;;;;77.75;62.25;;;;;;;;5112719;27;49566;-64
2021/11/09 01:15:29;;;;;;;;;73.33;60.33;;;;;;;;5112866;27;49727;-63
2021/11/09 01:17:54;;;;;;;;;72.67;59.33;;;;;;;;5112958;27;49543;-64
2021/11/09 01:20:21;;;;;;;;;77.00;61.67;;;;;;;;5111220;27;49745;-64
2021/11/09 01:22:50;;;;;;;;;79.00;60.33;;;;;;;;5111060;27;49837;-65
2021/11/09 01:25:15;;;;;;;;;77.33;59.67;;;;;;;;5112548;27;49821;-65
2021/11/09 01:27:40;;;;;;;;;74.33;60.67;;;;;;;;5111489;27;50015;-65
2021/11/09 01:30:06;;;;;;;;;79.67;62.00;;;;;;;;5110610;27;62959;-65
2021/11/09 01:32:31;;;;;;;;;84.33;66.00;;;;;;;;5112553;27;49904;-64
2021/11/09 01:34:56;;;;;;;;;87.33;64.67;;;;;;;;5112612;27;49810;-65
2021/11/09 01:37:21;;;;;;;;;80.00;64.33;;;;;;;;5112079;27;51021;-66
2021/11/09 01:39:46;;;;;;;;;79.67;60.33;;;;;;;;5111926;27;52682;-65
2021/11/09 01:42:12;;;;;;;;;82.33;64.00;;;;;;;;5111921;27;49635;-65
2021/11/09 01:44:37;;;;;;;;;78.00;63.00;;;;;;;;5111865;27;58397;-64
2021/11/09 01:47:02;;;;;;;;;77.67;60.33;;;;;;;;5112495;27;49974;-64
2021/11/09 01:49:27;;;;;;;;;74.67;60.33;;;;;;;;5110883;27;50436;-64
2021/11/09 01:51:52;;;;;;;;;72.33;60.00;;;;;;;;5111449;27;62986;-64
2021/11/09 01:54:17;;;;;;;;;77.33;61.33;;;;;;;;5112233;27;50042;-65
2021/11/09 01:56:43;;;;;;;;;77.00;61.67;;;;;;;;5111955;27;49669;-64
2021/11/09 01:59:08;;;;;;;;;77.00;61.33;;;;;;;;5111850;27;50341;-64
2021/11/09 02:01:33;;;;;;;;;77.00;61.33;;;;;;;;5112023;27;49863;-64
2021/11/09 02:04:00;;;;;;;;;72.33;58.00;;;;;;;;5112084;27;49734;-64
2021/11/09 02:06:25;;;;;;;;;79.33;62.67;;;;;;;;5112018;27;49873;-64
2021/11/09 02:08:51;;;;;;;;;78.00;60.50;;;;;;;;5110591;27;49988;-64
2021/11/09 02:11:16;;;;;;;;;75.00;59.33;;;;;;;;5111787;27;49898;-64
2021/11/09 02:13:42;;;;;;;;;73.67;59.00;;;;;;;;5110756;27;49993;-64
2021/11/09 02:16:08;;;;;;;;;76.67;61.00;;;;;;;;5111866;27;49797;-65
2021/11/09 02:18:33;;;;;;;;;70.00;57.67;;;;;;;;5111719;27;50404;-65
2021/11/09 02:21:00;;;;;;;;;71.25;57.75;;;;;;;;5111231;27;49668;-64
2021/11/09 02:23:25;;;;;;;;;66.75;55.75;;;;;;;;5110480;27;49836;-65
2021/11/09 02:25:50;;;;;;;;;72.33;57.67;;;;;;;;5111962;27;49814;-65
2021/11/09 02:28:16;;;;;;;;;71.50;57.75;;;;;;;;5111565;27;50507;-64
2021/11/09 02:30:41;;;;;;;;;73.75;56.00;;;;;;;;5111495;27;49746;-65
2021/11/09 02:33:07;;;;;;;;;73.50;58.75;;;;;;;;5111306;27;49990;-65
2021/11/09 02:35:32;;;;;;;;;76.25;58.00;;;;;;;;5111921;27;49755;-65
2021/11/09 02:37:58;;;;;;;;;71.25;58.25;;;;;;;;5109617;27;55383;-64
2021/11/09 02:40:23;;;;;;;;;70.75;58.50;;;;;;;;5111327;27;49730;-64
2021/11/09 02:42:49;;;;;;;;;69.25;54.25;;;;;;;;5110303;27;49744;-64
2021/11/09 02:45:25;;;;;;;;;59.75;47.00;;;;;;;;5111873;27;50327;-65
2021/11/09 02:47:55;;;;;;;;;62.50;51.25;;;;;;;;5111282;27;49939;-64
2021/11/09 02:50:23;;;;;;;;;64.75;53.50;;;;;;;;5111450;27;49814;-65
2021/11/09 02:53:03;;;;;;;;;69.50;56.00;;;;;;;;5111200;27;49808;-64
2021/11/09 02:55:33;;;;;;;;;70.25;53.50;;;;;;;;5111565;27;49671;-64
2021/11/09 03:00:34;;;;;;;;;70.75;56.75;;;;;;;;5111116;27;49662;-64
2021/11/09 03:03:05;;;;;;;;;70.50;56.50;;;;;;;;5110184;27;49621;-64
2021/11/09 03:05:43;;;;;;;;;67.50;53.75;;;;;;;;5110110;27;49706;-64
2021/11/09 03:08:22;;;;;;;;;67.25;56.50;;;;;;;;5111010;27;50468;-64
2021/11/09 03:10:49;;;;;;;;;72.50;58.75;;;;;;;;5111170;27;49687;-65
2021/11/09 03:13:14;;;;;;;;;68.50;52.75;;;;;;;;5111131;27;49642;-65
2021/11/09 03:15:39;;;;;;;;;71.75;57.75;;;;;;;;5110057;27;49790;-65
2021/11/09 03:18:08;;;;;;;;;71.50;56.25;;;;;;;;5110738;27;58298;-65
2021/11/09 03:44:45;;;;;;;;;67.50;55.25;;;;;;;;5111503;27;49773;-65
2021/11/09 03:47:12;;;;;;;;;73.50;56.00;;;;;;;;5114292;27;49761;-64
2021/11/09 03:49:38;;;;;;;;;65.75;54.50;;;;;;;;5114097;27;49636;-64
2021/11/09 03:52:08;;;;;;;;;66.25;52.75;;;;;;;;5113971;27;50048;-64
2021/11/09 03:54:33;;;;;;;;;65.75;55.25;;;;;;;;5114257;27;49604;-65
2021/11/09 03:57:11;;;;;;;;;72.75;58.00;;;;;;;;5114360;27;49602;-64
2021/11/09 03:59:47;;;;;;;;;71.00;55.67;;;;;;;;5113813;27;50510;-64
2021/11/09 04:07:16;;;;;;;;;70.00;55.50;;;;;;;;5112540;27;50049;-64
2021/11/09 04:15:15;;;;;;;;;65.00;53.25;;;;;;;;5113939;27;49773;-64
2021/11/09 04:20:34;;;;;;;;;67.75;54.50;;;;;;;;5112003;27;50490;-65
2021/11/09 05:03:03;;;;;;;;;65.25;52.25;;;;;;;;5124886;27;49735;-64
2021/11/09 05:08:27;;;;;;;;;67.25;54.75;;;;;;;;5130908;27;49509;-65
2021/11/09 05:10:55;;;;;;;;;66.50;55.00;;;;;;;;5130753;27;49480;-65
2021/11/09 05:13:20;;;;;;;;;67.25;55.50;;;;;;;;5129031;27;49843;-64
2021/11/09 05:15:45;;;;;;;;;67.00;54.00;;;;;;;;5131063;27;49340;-63
2021/11/09 05:18:10;;;;;;;;;59.75;51.50;;;;;;;;5129589;27;58126;-63
2021/11/09 05:20:35;;;;;;;;;68.50;54.75;;;;;;;;5120597;27;49489;-63
2021/11/09 05:23:00;;;;;;;;;64.25;55.00;;;;;;;;5112566;27;50742;-63
2021/11/09 05:25:26;;;;;;;;;63.00;51.75;;;;;;;;5110769;27;64410;-64
2021/11/09 05:27:51;;;;;;;;;60.50;51.25;;;;;;;;5092120;27;49634;-64
2021/11/09 05:30:17;;;;;;;;;58.25;49.00;;;;;;;;5109748;27;49888;-62
2021/11/09 05:32:42;;;;;;;;;65.50;53.25;;;;;;;;5110310;27;49935;-63
2021/11/09 05:35:09;;;;;;;;;71.00;55.00;;;;;;;;5109033;27;50243;-68
2021/11/09 05:37:37;;;;;;;;;57.00;46.50;;;;;;;;5109324;27;49738;-63
2021/11/09 05:40:05;;;;;;;;;70.00;56.75;;;;;;;;5111648;27;49813;-64
2021/11/09 05:42:30;;;;;;;;;71.75;57.25;;;;;;;;5112199;27;49605;-60
2021/11/09 05:44:56;;;;;;;;;71.25;56.25;;;;;;;;5111812;27;59471;-62
2021/11/09 05:47:21;;;;;;;;;70.00;58.00;;;;;;;;5110975;27;49678;-64
2021/11/09 05:49:46;;;;;;;;;70.00;54.75;;;;;;;;5112322;27;49571;-62
2021/11/09 05:52:11;;;;;;;;;70.00;56.75;;;;;;;;5110441;27;49752;-62
2021/11/09 05:54:37;;;;;;;;;72.00;56.50;;;;;;;;5112227;27;49754;-69
2021/11/09 05:57:02;;;;;;;;;70.00;56.75;;;;;;;;5112285;27;50094;-69
2021/11/09 05:59:27;;;;;;;;;71.50;58.00;;;;;;;;5110981;27;49788;-69
2021/11/09 06:01:52;;;;;;;;;64.75;51.50;;;;;;;;5110477;27;54388;-67
2021/11/09 06:04:17;;;;;;;;;70.50;54.25;;;;;;;;5111982;27;49996;-68
2021/11/09 06:06:43;;;;;;;;;60.25;50.50;;;;;;;;5109334;27;57732;-68
2021/11/09 06:09:08;;;;;;;;;69.00;55.50;;;;;;;;5112076;27;49650;-68
2021/11/09 06:11:33;;;;;;;;;75.50;56.00;;;;;;;;5111873;27;50739;-68
2021/11/09 06:13:58;;;;;;;;;74.50;58.75;;;;;;;;5110613;27;49980;-66
2021/11/09 06:16:24;;;;;;;;;71.67;58.00;;;;;;;;5111889;27;59368;-70
2021/11/09 06:18:49;;;;;;;;;71.00;56.25;;;;;;;;5112139;27;49866;-61
2021/11/09 06:21:14;;;;;;;;;73.33;52.67;;;;;;;;5111261;27;56497;-60
2021/11/09 06:23:39;;;;;;;;;70.67;56.00;;;;;;;;5111755;27;49669;-60
2021/11/09 06:26:05;;;;;;;;;77.33;61.00;;;;;;;;5111642;27;49905;-60
2021/11/09 06:28:30;;;;;;;;;71.25;57.25;;;;;;;;5110664;27;49725;-61
2021/11/09 06:30:55;;;;;;;;;72.75;55.25;;;;;;;;5109892;27;51044;-60
2021/11/09 06:33:20;;;;;;;;;72.50;57.50;;;;;;;;5110287;27;49898;-60
2021/11/09 06:35:46;;;;;;;;;67.75;55.00;;;;;;;;5111301;27;49656;-62
2021/11/09 06:38:11;;;;;;;;;61.25;50.50;;;;;;;;5111754;27;49624;-63
2021/11/09 06:40:36;;;;;;;;;66.25;53.50;;;;;;;;5111177;27;52213;-63
2021/11/09 06:43:01;;;;;;;;;67.25;54.75;;;;;;;;5109417;27;59681;-70
2021/11/09 06:45:26;;;;;;;;;62.75;51.75;;;;;;;;5110056;27;49639;-69
2021/11/09 06:47:52;;;;;;;;;63.75;51.75;;;;;;;;5110228;27;49793;-69
2021/11/09 06:50:17;;;;;;;;;61.50;51.75;;;;;;;;5110847;27;49678;-70
2021/11/09 06:52:43;;;;;;;;;61.25;52.75;;;;;;;;5109776;27;49849;-70
2021/11/09 06:55:08;;;;;;;;;66.00;51.00;;;;;;;;5111299;27;49534;-70
2021/11/09 06:57:33;;;;;;;;;63.00;48.75;;;;;;;;5109949;27;49777;-70
2021/11/09 06:59:58;;;;;;;;;70.25;53.75;;;;;;;;5110930;27;54588;-70
2021/11/09 07:02:26;;;;;;;;;65.50;52.00;;;;;;;;5111029;27;49567;-69
2021/11/09 07:04:52;;;;;;;;;69.00;57.25;;;;;;;;5111196;27;49565;-62
2021/11/09 07:07:17;;;;;;;;;65.25;53.50;;;;;;;;5111108;27;49937;-62
2021/11/09 07:09:42;;;;;;;;;63.75;50.50;;;;;;;;5110599;27;64713;-63
2021/11/09 07:12:07;;;;;;;;;59.00;50.00;;;;;;;;5110997;27;49858;-63
2021/11/09 07:14:33;;;;;;;;;68.00;53.25;;;;;;;;5111110;27;49865;-63
2021/11/09 07:16:58;;;;;;;;;65.00;52.00;;;;;;;;5111143;27;49940;-62
2021/11/09 07:19:24;;;;;;;;;66.50;50.00;;;;;;;;5111992;27;50635;-63
2021/11/09 07:21:49;;;;;;;;;65.25;53.50;;;;;;;;5114699;27;49924;-62
2021/11/09 07:24:14;;;;;;;;;60.00;50.50;;;;;;;;5114558;27;49883;-63
2021/11/09 07:26:39;;;;;;;;;68.25;52.50;;;;;;;;5113206;27;49979;-63
2021/11/09 07:29:05;;;;;;;;;60.50;47.00;;;;;;;;5114332;27;49722;-63
2021/11/09 07:31:32;;;;;;;;;64.25;53.00;;;;;;;;5114334;27;49895;-63
2021/11/09 07:33:57;;;;;;;;;60.50;50.50;;;;;;;;5114487;27;49776;-63
2021/11/09 07:36:22;;;;;;;;;68.75;55.25;;;;;;;;5095914;27;49989;-63
2021/11/09 07:38:47;;;;;;;;;63.75;53.00;;;;;;;;5114036;27;51346;-63
2021/11/09 07:41:13;;;;;;;;;63.50;51.75;;;;;;;;5113969;27;50182;-63
2021/11/09 07:43:38;;;;;;;;;74.00;58.25;;;;;;;;5114279;27;49867;-63
2021/11/09 07:46:03;;;;;;;;;66.75;54.00;;;;;;;;5114203;27;49810;-63
2021/11/09 07:48:28;;;;;;;;;67.25;54.25;;;;;;;;5112662;27;50403;-63
2021/11/09 07:50:54;;;;;;;;;63.00;49.75;;;;;;;;5114070;27;49630;-64
2021/11/09 07:53:20;;;;;;;;;61.75;49.50;;;;;;;;5113102;27;49760;-63
2021/11/09 07:55:49;;;;;;;;;70.25;53.25;;;;;;;;5112950;27;49905;-64
2021/11/09 07:58:29;;;;;;;;;27.00;19.50;;;;;;;;5114014;27;50268;-63
2021/11/09 08:01:06;;;;;;;;;71.00;55.25;;;;;;;;5112607;27;49885;-62
2021/11/09 08:03:39;;;;;;;;;65.25;54.50;;;;;;;;5112931;27;49719;-63
2021/11/09 08:06:18;;;;;;;;;78.00;57.75;;;;;;;;5112826;27;49715;-64
2021/11/09 08:11:24;;;;;;;;;68.25;55.50;;;;;;;;5114191;27;49715;-63
2021/11/09 08:13:49;;;;;;;;;69.25;59.00;;;;;;;;5112622;27;49817;-62
2021/11/09 08:16:15;;;;;;;;;68.50;54.75;;;;;;;;5113922;27;49843;-63
2021/11/09 08:18:40;;;;;;;;;72.00;56.25;;;;;;;;5114025;27;50578;-63
2021/11/09 08:21:05;;;;;;;;;63.00;53.25;;;;;;;;5113287;27;49883;-63
2021/11/09 08:23:31;;;;;;;;;74.00;58.75;;;;;;;;5113854;27;49686;-63
2021/11/09 08:25:56;;;;;;;;;66.00;54.75;;;;;;;;5114058;27;49767;-64
2021/11/09 08:28:22;;;;;;;;;71.25;54.75;;;;;;;;5113359;27;50305;-64
2021/11/09 08:30:50;;;;;;;;;70.75;55.00;;;;;;;;5112971;27;49615;-63
2021/11/09 08:33:15;;;;;;;;;70.75;55.25;;;;;;;;5113743;27;49679;-63
2021/11/09 08:35:41;;;;;;;;;77.00;57.75;;;;;;;;5113655;27;50088;-63
2021/11/09 08:38:07;;;;;;;;;74.00;59.00;;;;;;;;5112746;27;65648;-63
2021/11/09 08:40:34;;;;;;;;;74.50;60.00;;;;;;;;5113407;27;49604;-63
2021/11/09 08:43:00;;;;;;;;;75.75;56.75;;;;;;;;5113473;27;49943;-63
2021/11/09 08:45:38;;;;;;;;;77.75;58.75;;;;;;;;5112295;27;49645;-63
2021/11/09 08:48:12;;;;;;;;;66.50;49.25;;;;;;;;5113583;27;51444;-62
2021/11/09 08:50:37;;;;;;;;;70.00;55.00;;;;;;;;5111830;27;49791;-63
2021/11/09 08:53:07;;;;;;;;;68.33;57.00;;;;;;;;5113251;27;49872;-63
2021/11/09 08:58:15;;;;;;;;;73.25;58.50;;;;;;;;5112075;27;49994;-63
2021/11/09 09:04:25;;;;;;;;;69.75;55.25;;;;;;;;5113142;27;49701;-62
2021/11/09 09:06:21;;;;;;;;;75.75;58.25;;;;;;;;5103486;27;49832;-62
2021/11/09 09:08:47;;;;;;;;;75.00;59.25;;;;;;;;5112827;27;50016;-62
2021/11/09 09:11:12;;;;;;;;;67.50;55.25;;;;;;;;5112913;27;49676;-63
2021/11/09 09:13:37;;;;;;;;;74.50;58.25;;;;;;;;5113197;27;50115;-62
2021/11/09 09:16:04;;;;;;;;;64.25;50.75;;;;;;;;5113195;27;49565;-63
2021/11/09 09:18:29;;;;;;;;;77.75;57.25;;;;;;;;5112756;27;50344;-62
2021/11/09 09:21:02;;;;;;;;;65.75;52.75;;;;;;;;5112309;27;49588;-63
2021/11/09 09:23:35;;;;;;;;;73.00;58.75;;;;;;;;5112732;27;49830;-63
2021/11/09 09:31:14;;;;;;;;;75.50;59.50;;;;;;;;5112716;27;49778;-63
2021/11/09 09:55:39;;;;;;;;;70.50;56.25;;;;;;;;5112183;27;49840;-63
2021/11/09 09:58:05;;;;;;;;;75.25;57.25;;;;;;;;5112349;27;49566;-63
2021/11/09 10:00:30;;;;;;;;;70.50;55.75;;;;;;;;5111879;27;49805;-62
2021/11/09 10:02:57;;;;;;;;;71.00;55.75;;;;;;;;5112154;27;49636;-63
2021/11/09 10:05:22;;;;;;;;;68.75;54.00;;;;;;;;5111791;27;49906;-63
2021/11/09 10:07:51;;;;;;;;;69.00;55.25;;;;;;;;5112201;27;49535;-63
2021/11/09 10:10:29;;;;;;;;;65.75;54.25;;;;;;;;5093472;27;50735;-63
2021/11/09 10:13:23;;;;;;;;;66.00;55.25;;;;;;;;5112051;27;49540;-63
2021/11/09 10:15:49;;;;;;;;;66.00;52.50;;;;;;;;5106823;27;49700;-63
2021/11/09 10:18:15;;;;;;;;;61.75;51.25;;;;;;;;5111896;27;49559;-63
2021/11/09 10:20:41;;;;;;;;;60.50;49.25;;;;;;;;5111129;27;50635;-62
2021/11/09 10:23:07;;;;;;;;;62.25;51.25;;;;;;;;5111951;27;49767;-63
2021/11/09 10:25:32;;;;;;;;;62.00;53.50;;;;;;;;5111842;27;49754;-63
2021/11/09 10:27:59;;;;;;;;;71.00;54.75;;;;;;;;5111981;27;49935;-63
2021/11/09 10:30:25;;;;;;;;;74.25;55.00;;;;;;;;5111537;27;50623;-63
2021/11/09 10:32:51;;;;;;;;;69.00;53.00;;;;;;;;5111438;27;49741;-62
2021/11/09 10:35:16;;;;;;;;;66.00;53.25;;;;;;;;5111522;27;49705;-63
2021/11/09 10:38:04;;;;;;;;;62.75;51.25;;;;;;;;5110582;27;49948;-63
2021/11/09 10:40:29;;;;;;;;;68.75;53.50;;;;;;;;5111705;27;49736;-62
2021/11/09 10:42:55;;;;;;;;;75.50;57.00;;;;;;;;5111920;27;49998;-63
2021/11/09 10:45:22;;;;;;;;;68.00;53.50;;;;;;;;5111670;27;49747;-62
2021/11/09 10:47:49;;;;;;;;;60.75;49.75;;;;;;;;5111755;27;49566;-62
2021/11/09 10:50:24;;;;;;;;;61.25;50.50;;;;;;;;5109765;27;49687;-63
2021/11/09 10:53:02;;;;;;;;;64.00;52.00;;;;;;;;5112314;27;49669;-63
2021/11/09 10:55:33;;;;;;;;;62.00;52.00;;;;;;;;5096519;27;49811;-63
2021/11/09 11:06:22;;;;;;;;;60.25;46.50;;;;;;;;5114915;27;49690;-63
2021/11/09 11:08:57;;;;;;;;;60.00;49.25;;;;;;;;5113988;27;49695;-63
2021/11/09 11:11:29;;;;;;;;;63.75;51.75;;;;;;;;5113309;27;50912;-63
2021/11/09 11:14:15;;;;;;;;;54.75;47.25;;;;;;;;5114739;27;49638;-63
2021/11/09 11:16:44;;;;;;;;;61.00;49.50;;;;;;;;5114528;27;49507;-63
2021/11/09 11:19:10;;;;;;;;;61.75;48.25;;;;;;;;5114810;27;49773;-63
2021/11/09 11:21:35;;;;;;;;;58.00;48.25;;;;;;;;5114239;27;50228;-62
2021/11/09 11:24:01;;;;;;;;;58.50;49.75;;;;;;;;5113475;27;49838;-63
2021/11/09 11:26:26;;;;;;;;;67.25;54.00;;;;;;;;5115228;27;49808;-63
2021/11/09 11:28:52;;;;;;;;;60.00;50.00;;;;;;;;5114833;27;49691;-65
2021/11/09 11:31:18;;;;;;;;;57.25;48.00;;;;;;;;5114627;27;49799;-63
2021/11/09 11:33:44;;;;;;;;;65.00;50.50;;;;;;;;5113109;27;49804;-63
2021/11/09 11:36:09;;;;;;;;;62.00;50.25;;;;;;;;5114299;27;49904;-63
2021/11/09 11:38:35;;;;;;;;;54.50;44.50;;;;;;;;5113452;27;49834;-63
2021/11/09 11:41:02;;;;;;;;;58.25;46.75;;;;;;;;5113126;27;49757;-63
2021/11/09 11:43:42;;;;;;;;;53.50;42.00;;;;;;;;5114513;27;49675;-64
2021/11/09 11:46:08;;;;;;;;;48.25;39.00;;;;;;;;5114423;27;49797;-63
2021/11/09 11:48:55;;;;;;;;;44.25;38.75;;;;;;;;5112986;27;49681;-64
2021/11/09 11:51:20;;;;;;;;;44.00;38.25;;;;;;;;5114140;27;51532;-62
2021/11/09 11:53:47;;;;;;;;;41.50;36.00;;;;;;;;5113003;27;50203;-63
2021/11/09 11:56:13;;;;;;;;;49.00;38.75;;;;;;;;5114123;27;49738;-62
2021/11/09 11:58:38;;;;;;;;;40.75;35.50;;;;;;;;5114572;27;49985;-64
2021/11/09 12:01:03;;;;;;;;;41.00;36.50;;;;;;;;5112749;27;50516;-63
2021/11/09 12:03:28;;;;;;;;;46.50;40.25;;;;;;;;5113707;27;54819;-62
2021/11/09 12:05:54;;;;;;;;;44.00;39.00;;;;;;;;5112956;27;49972;-63
2021/11/09 12:08:35;;;;;;;;;46.50;38.50;;;;;;;;5114097;27;49626;-64
2021/11/09 12:11:00;;;;;;;;;43.00;37.25;;;;;;;;5113871;27;49614;-63
2021/11/09 12:13:25;;;;;;;;;37.75;35.00;;;;;;;;5113858;27;49634;-63
2021/11/09 12:15:54;;;;;;;;;42.00;37.25;;;;;;;;5113857;27;49565;-63
2021/11/09 12:18:34;;;;;;;;;35.75;32.50;;;;;;;;5114026;27;49720;-63
2021/11/09 12:21:18;;;;;;;;;35.75;29.50;;;;;;;;5113166;27;49651;-63
2021/11/09 12:23:45;;;;;;;;;39.50;36.75;;;;;;;;5113703;27;49788;-63
2021/11/09 12:26:35;;;;;;;;;35.00;32.75;;;;;;;;5112417;27;49505;-63
2021/11/09 12:29:00;;;;;;;;;33.50;27.25;;;;;;;;5112493;27;49711;-63
2021/11/09 12:31:25;;;;;;;;;36.50;32.25;;;;;;;;5113475;27;50964;-63
2021/11/09 12:33:50;;;;;;;;;28.50;25.75;;;;;;;;5111694;27;64668;-63
2021/11/09 12:36:19;;;;;;;;;34.50;25.00;;;;;;;;5113214;27;49742;-63
2021/11/09 12:38:46;;;;;;;;;31.00;24.50;;;;;;;;5113960;27;49914;-63
2021/11/09 12:41:15;;;;;;;;;29.50;27.75;;;;;;;;5113203;27;50231;-63
2021/11/09 12:43:47;;;;;;;;;23.25;19.75;;;;;;;;5112021;27;49710;-63
2021/11/09 12:46:30;;;;;;;;;24.25;20.25;;;;;;;;5113298;27;49742;-63
2021/11/09 12:49:02;;;;;;;;;29.50;28.50;;;;;;;;5113281;27;49642;-63
2021/11/09 12:51:31;;;;;;;;;21.25;19.00;;;;;;;;5111682;27;49788;-63
2021/11/09 12:53:59;;;;;;;;;29.75;19.75;;;;;;;;5113279;27;49775;-63
2021/11/09 12:56:36;;;;;;;;;23.25;18.50;;;;;;;;5113315;27;49611;-63
2021/11/09 12:59:07;;;;;;;;;18.25;16.75;;;;;;;;5113350;27;49698;-64
2021/11/09 13:01:39;;;;;;;;;19.50;16.25;;;;;;;;5112786;27;49630;-63
2021/11/09 13:09:15;;;;;;;;;25.25;20.00;;;;;;;;5113224;27;49740;-63
2021/11/09 13:11:43;;;;;;;;;23.50;17.00;;;;;;;;5112687;27;50394;-63
2021/11/09 13:14:08;;;;;;;;;23.50;18.00;;;;;;;;5112901;27;49559;-63
2021/11/09 13:16:33;;;;;;;;;19.75;19.75;;;;;;;;5111738;27;49912;-63
2021/11/09 13:19:03;;;;;;;;;27.75;20.75;;;;;;;;5112904;27;49589;-63
2021/11/09 13:21:28;;;;;;;;;14.25;14.25;;;;;;;;5112199;27;50293;-63
2021/11/09 13:23:53;;;;;;;;;22.75;21.75;;;;;;;;5111414;27;50513;-63
2021/11/09 13:26:18;;;;;;;;;20.00;19.00;;;;;;;;5112655;27;49694;-64
2021/11/09 13:28:43;;;;;;;;;19.75;17.75;;;;;;;;5111164;27;52757;-63
2021/11/09 13:31:10;;;;;;;;;16.50;14.00;;;;;;;;5110680;27;57214;-63
2021/11/09 13:33:38;;;;;;;;;18.25;17.50;;;;;;;;5112522;27;49682;-63
2021/11/09 13:36:04;;;;;;;;;20.50;17.75;;;;;;;;5112354;27;49743;-63
2021/11/09 13:38:37;;;;;;;;;20.25;15.75;;;;;;;;5112627;27;49631;-63
2021/11/09 13:41:03;;;;;;;;;17.50;15.25;;;;;;;;5093785;27;51294;-63
2021/11/09 13:43:31;;;;;;;;;21.00;16.75;;;;;;;;5112609;27;50047;-63
2021/11/09 13:46:01;;;;;;;;;14.50;12.00;;;;;;;;5112750;27;50065;-63
2021/11/09 13:48:26;;;;;;;;;16.25;15.25;;;;;;;;5110969;27;49686;-64
2021/11/09 13:50:52;;;;;;;;;10.50;10.00;;;;;;;;5111884;27;52737;-63
2021/11/09 13:53:21;;;;;;;;;11.50;11.25;;;;;;;;5111014;27;49856;-65
2021/11/09 13:55:46;;;;;;;;;14.75;14.75;;;;;;;;5111313;27;49938;-63
2021/11/09 13:58:12;;;;;;;;;10.50;10.50;;;;;;;;5110753;27;59164;-63
2021/11/09 14:00:46;;;;;;;;;15.75;12.00;;;;;;;;5112019;27;51534;-63
2021/11/09 14:18:54;;;;;;;;;11.00;9.25;;;;;;;;5112058;27;49758;-63
2021/11/09 14:21:30;;;;;;;;;12.00;9.75;;;;;;;;5111376;27;50460;-63
2021/11/09 14:23:55;;;;;;;;;16.00;13.00;;;;;;;;5112185;27;49621;-64
2021/11/09 14:26:24;;;;;;;;;9.00;9.00;;;;;;;;5110704;27;50927;-65
2021/11/09 14:28:56;;;;;;;;;15.00;10.50;;;;;;;;5111942;27;49981;-64
2021/11/09 14:31:27;;;;;;;;;12.50;10.75;;;;;;;;5110330;27;50571;-63
2021/11/09 14:33:53;;;;;;;;;15.50;13.00;;;;;;;;5111548;27;49955;-64
2021/11/09 14:36:23;;;;;;;;;15.50;14.50;;;;;;;;5110158;27;49629;-64
2021/11/09 14:38:51;;;;;;;;;12.50;11.50;;;;;;;;5112551;27;50044;-63
2021/11/09 14:41:24;;;;;;;;;18.75;11.00;;;;;;;;5111455;27;50448;-63
2021/11/09 14:43:56;;;;;;;;;12.75;11.50;;;;;;;;5111745;27;49835;-63
2021/11/09 14:46:26;;;;;;;;;12.00;12.00;;;;;;;;5111508;27;49732;-63
2021/11/09 14:48:58;;;;;;;;;14.25;11.50;;;;;;;;5110487;27;49792;-62
2021/11/09 14:56:23;;;;;;;;;15.75;14.00;;;;;;;;5110158;27;49678;-63
2021/11/09 14:58:48;;;;;;;;;11.75;9.75;;;;;;;;5110727;27;49707;-63
2021/11/09 15:01:36;;;;;;;;;10.75;10.75;;;;;;;;5111231;27;50716;-63
2021/11/09 15:04:03;;;;;;;;;12.25;9.75;;;;;;;;5111360;27;49700;-63
2021/11/09 15:09:14;;;;;;;;;8.25;8.25;;;;;;;;5111686;27;49712;-63
2021/11/09 15:25:38;;;;;;;;;10.75;10.25;;;;;;;;5111245;27;49596;-63
2021/11/09 15:28:25;;;;;;;;;10.75;9.75;;;;;;;;5109648;27;49843;-65
2021/11/09 15:30:55;;;;;;;;;14.25;9.00;;;;;;;;5111386;27;50003;-63
2021/11/09 15:33:23;;;;;;;;;8.75;5.00;;;;;;;;5109843;27;49721;-63
2021/11/09 15:36:13;;;;;;;;;12.50;9.25;;;;;;;;5110902;27;49825;-63
2021/11/09 15:38:39;;;;;;;;;9.00;8.50;;;;;;;;5110971;27;49650;-63
2021/11/09 15:41:04;;;;;;;;;9.50;8.75;;;;;;;;5113810;27;49844;-63
2021/11/09 15:43:32;;;;;;;;;7.25;6.75;;;;;;;;5114726;27;50487;-63
2021/11/09 15:45:57;;;;;;;;;8.50;7.25;;;;;;;;5113174;27;49695;-63
2021/11/09 15:48:22;;;;;;;;;8.25;7.00;;;;;;;;5112502;27;56933;-63
2021/11/09 15:50:48;;;;;;;;;9.00;7.25;;;;;;;;5114608;27;49818;-63
2021/11/09 15:53:13;;;;;;;;;8.00;7.00;;;;;;;;5114057;27;50433;-63
2021/11/09 15:55:39;;;;;;;;;8.75;6.25;;;;;;;;5113069;27;49897;-63
2021/11/09 15:58:04;;;;;;;;;12.25;8.00;;;;;;;;5114385;27;49533;-62
2021/11/09 16:00:29;;;;;;;;;11.50;9.75;;;;;;;;5114291;27;49919;-64
2021/11/09 16:02:55;;;;;;;;;13.75;8.50;;;;;;;;5113890;27;50463;-63
2021/11/09 16:05:20;;;;;;;;;9.75;9.75;;;;;;;;5114017;27;49631;-63
2021/11/09 16:07:46;;;;;;;;;8.00;8.00;;;;;;;;5113827;27;49866;-63
2021/11/09 16:10:15;;;;;;;;;10.00;8.50;;;;;;;;5114112;27;49932;-63
2021/11/09 16:12:41;;;;;;;;;10.75;7.75;;;;;;;;5113918;27;50571;-63
2021/11/09 16:15:08;;;;;;;;;9.00;7.50;;;;;;;;5113995;27;49783;-63
2021/11/09 16:17:33;;;;;;;;;14.75;11.75;;;;;;;;5113930;27;49559;-63
2021/11/09 16:19:59;;;;;;;;;13.00;8.00;;;;;;;;5113764;27;49653;-70
2021/11/09 16:22:31;;;;;;;;;10.50;10.50;;;;;;;;5111904;27;49980;-66
2021/11/09 16:24:56;;;;;;;;;8.75;8.75;;;;;;;;5111945;27;49829;-66
2021/11/09 16:27:22;;;;;;;;;9.00;8.00;;;;;;;;5094983;27;49889;-66
2021/11/09 16:29:54;;;;;;;;;12.00;9.00;;;;;;;;5108915;27;49851;-66
2021/11/09 16:32:19;;;;;;;;;9.25;7.75;;;;;;;;5104184;27;49754;-66
2021/11/09 16:34:46;;;;;;;;;15.00;12.25;;;;;;;;5113173;27;49774;-66
2021/11/09 16:37:11;;;;;;;;;15.50;9.25;;;;;;;;5108573;27;49883;-66
2021/11/09 16:39:47;;;;;;;;;14.00;10.50;;;;;;;;5102415;27;49846;-66
2021/11/09 16:42:12;;;;;;;;;9.50;9.25;;;;;;;;5111819;27;50555;-69
2021/11/09 16:44:39;;;;;;;;;12.25;11.75;;;;;;;;5113280;27;49546;-67
2021/11/09 16:47:05;;;;;;;;;10.00;10.00;;;;;;;;5086836;27;49841;-66
2021/11/09 16:52:07;;;;;;;;;12.25;9.25;;;;;;;;5110833;27;50273;-67
2021/11/09 16:54:46;;;;;;;;;12.25;10.50;;;;;;;;5094801;27;49784;-64
2021/11/09 18:19:57;;;;;;;;;17.25;17.00;;;;;;;;5087635;27;49801;-63
2021/11/09 18:22:05;;;;;;;;;17.50;14.75;;;;;;;;5070534;27;49950;-65
2021/11/09 18:24:45;;;;;;;;;19.75;19.25;;;;;;;;5087496;27;49567;-68
2021/11/09 18:27:11;;;;;;;;;27.25;26.75;;;;;;;;5087819;27;49565;-69
2021/11/09 18:29:36;;;;;;;;;31.00;29.75;;;;;;;;5069820;27;49751;-73
2021/11/09 18:32:02;;;;;;;;;28.25;23.75;;;;;;;;5087655;27;50280;-66
2021/11/09 18:34:28;;;;;;;;;24.25;20.50;;;;;;;;5069678;27;49660;-66
2021/11/09 18:36:54;;;;;;;;;21.75;19.50;;;;;;;;5087559;27;49793;-65
2021/11/09 18:39:19;;;;;;;;;23.50;20.25;;;;;;;;5069866;27;49776;-65
2021/11/09 18:41:44;;;;;;;;;30.25;20.00;;;;;;;;5087468;27;50473;-68